Terminal Aerodrome Forecast
Issued by NWS

Home | Current Version | Previous Version | Text Only | Print | Product List | Glossary On
Versions: 1 2 3 4 5 6 7 8 9 10 11 12 13 14 15 16 17 18 19 20 21 22 23 24
000
FTUS46 KSEW 230900 AAA
TAFSEA
TAF AMD
KSEA 230901Z 2309/2412 17010KT P6SM -SHRA SCT012 OVC030
      TEMPO 2309/2312 5SM -SHRA BR BKN012 OVC030
     FM231200 19010KT P6SM VCSH SCT025 BKN040
     FM240100 18010KT P6SM -RA BKN025 OVC045
     FM240300 18010KT 5SM -RA OVC015
     FM241000 20015G25KT P6SM -SHRA BKN015 OVC030=

USA.gov is the U.S. government's official web portal to all federal, state and local government web resources and services.